sensor_id;sensor_type;location;lat;lon;timestamp;temperature;humidity
30097;DHT22;16915;51.466;3.610;2023-03-03T00:01:05;2.10;99.90
30097;DHT22;16915;51.466;3.610;2023-03-03T00:03:30;2.10;99.90
30097;DHT22;16915;51.466;3.610;2023-03-03T00:05:57;2.20;99.90
30097;DHT22;16915;51.466;3.610;2023-03-03T00:08:23;2.20;99.90
30097;DHT22;16915;51.466;3.610;2023-03-03T00:10:49;2.20;99.90
30097;DHT22;16915;51.466;3.610;2023-03-03T00:13:23;2.20;99.90
30097;DHT22;16915;51.466;3.610;2023-03-03T00:15:49;2.20;99.90
30097;DHT22;16915;51.466;3.610;2023-03-03T00:18:31;2.10;99.90
30097;DHT22;16915;51.466;3.610;2023-03-03T00:20:59;2.10;99.90
30097;DHT22;16915;51.466;3.610;2023-03-03T00:23:29;2.00;99.90
30097;DHT22;16915;51.466;3.610;2023-03-03T00:25:56;2.00;99.90
30097;DHT22;16915;51.466;3.610;2023-03-03T00:28:23;2.00;99.90
30097;DHT22;16915;51.466;3.610;2023-03-03T00:30:51;2.10;99.90
30097;DHT22;16915;51.466;3.610;2023-03-03T00:33:33;2.10;99.90
30097;DHT22;16915;51.466;3.610;2023-03-03T00:36:21;2.00;99.90
30097;DHT22;16915;51.466;3.610;2023-03-03T00:38:52;1.90;99.90
30097;DHT22;16915;51.466;3.610;2023-03-03T00:41:27;1.90;99.90
30097;DHT22;16915;51.466;3.610;2023-03-03T00:43:53;1.90;99.90
30097;DHT22;16915;51.466;3.610;2023-03-03T00:46:22;1.90;99.90
30097;DHT22;16915;51.466;3.610;2023-03-03T00:48:50;1.90;99.90
30097;DHT22;16915;51.466;3.610;2023-03-03T00:53:48;1.80;99.90
30097;DHT22;16915;51.466;3.610;2023-03-03T00:56:14;1.90;99.90
30097;DHT22;16915;51.466;3.610;2023-03-03T00:58:40;1.90;99.90
30097;DHT22;16915;51.466;3.610;2023-03-03T01:01:06;1.90;99.90
30097;DHT22;16915;51.466;3.610;2023-03-03T01:03:31;1.90;99.90
30097;DHT22;16915;51.466;3.610;2023-03-03T01:05:57;1.90;99.90
30097;DHT22;16915;51.466;3.610;2023-03-03T01:08:23;1.90;99.90
30097;DHT22;16915;51.466;3.610;2023-03-03T01:10:51;1.90;99.90
30097;DHT22;16915;51.466;3.610;2023-03-03T01:13:19;1.90;99.90
30097;DHT22;16915;51.466;3.610;2023-03-03T01:15:45;1.90;99.90
30097;DHT22;16915;51.466;3.610;2023-03-03T01:18:11;1.90;99.90
30097;DHT22;16915;51.466;3.610;2023-03-03T01:20:37;1.90;99.90
30097;DHT22;16915;51.466;3.610;2023-03-03T01:23:03;1.90;99.90
30097;DHT22;16915;51.466;3.610;2023-03-03T01:25:29;1.90;99.90
30097;DHT22;16915;51.466;3.610;2023-03-03T01:27:55;1.80;99.90
30097;DHT22;16915;51.466;3.610;2023-03-03T01:30:21;1.90;99.90
30097;DHT22;16915;51.466;3.610;2023-03-03T01:32:46;1.80;99.90
30097;DHT22;16915;51.466;3.610;2023-03-03T01:35:12;1.80;99.90
30097;DHT22;16915;51.466;3.610;2023-03-03T01:37:38;1.80;99.90
30097;DHT22;16915;51.466;3.610;2023-03-03T01:40:05;1.80;99.90
30097;DHT22;16915;51.466;3.610;2023-03-03T01:42:32;1.90;99.90
30097;DHT22;16915;51.466;3.610;2023-03-03T01:47:50;1.90;99.90
30097;DHT22;16915;51.466;3.610;2023-03-03T01:50:37;1.90;99.90
30097;DHT22;16915;51.466;3.610;2023-03-03T01:53:10;1.90;99.90
30097;DHT22;16915;51.466;3.610;2023-03-03T01:55:38;1.80;99.90
30097;DHT22;16915;51.466;3.610;2023-03-03T01:58:44;1.80;99.90
30097;DHT22;16915;51.466;3.610;2023-03-03T02:01:05;1.80;99.90
30097;DHT22;16915;51.466;3.610;2023-03-03T02:03:32;1.80;99.90
30097;DHT22;16915;51.466;3.610;2023-03-03T02:06:02;1.70;99.90
30097;DHT22;16915;51.466;3.610;2023-03-03T02:08:35;1.60;99.90
30097;DHT22;16915;51.466;3.610;2023-03-03T02:11:03;1.60;99.90
30097;DHT22;16915;51.466;3.610;2023-03-03T02:13:30;1.60;99.90
30097;DHT22;16915;51.466;3.610;2023-03-03T02:15:55;1.70;99.90
30097;DHT22;16915;51.466;3.610;2023-03-03T02:18:21;1.60;99.90
30097;DHT22;16915;51.466;3.610;2023-03-03T02:21:08;1.60;99.90
30097;DHT22;16915;51.466;3.610;2023-03-03T02:26:24;1.50;99.90
30097;DHT22;16915;51.466;3.610;2023-03-03T02:28:50;1.60;99.90
30097;DHT22;16915;51.466;3.610;2023-03-03T02:31:21;1.60;99.90
30097;DHT22;16915;51.466;3.610;2023-03-03T02:33:49;1.60;99.90
30097;DHT22;16915;51.466;3.610;2023-03-03T02:36:21;1.60;99.90
30097;DHT22;16915;51.466;3.610;2023-03-03T02:44:04;1.50;99.90
30097;DHT22;16915;51.466;3.610;2023-03-03T02:46:49;1.50;99.90
30097;DHT22;16915;51.466;3.610;2023-03-03T02:49:21;1.50;99.90
30097;DHT22;16915;51.466;3.610;2023-03-03T02:51:47;1.50;99.90
30097;DHT22;16915;51.466;3.610;2023-03-03T02:54:14;1.50;99.90
30097;DHT22;16915;51.466;3.610;2023-03-03T02:56:40;1.50;99.90
30097;DHT22;16915;51.466;3.610;2023-03-03T02:59:06;1.50;99.90
30097;DHT22;16915;51.466;3.610;2023-03-03T03:01:32;1.60;99.90
30097;DHT22;16915;51.466;3.610;2023-03-03T03:04:07;1.60;99.90
30097;DHT22;16915;51.466;3.610;2023-03-03T03:06:33;1.60;99.90
30097;DHT22;16915;51.466;3.610;2023-03-03T03:08:59;1.60;99.90
30097;DHT22;16915;51.466;3.610;2023-03-03T03:11:25;1.60;99.90
30097;DHT22;16915;51.466;3.610;2023-03-03T03:13:51;1.50;99.90
30097;DHT22;16915;51.466;3.610;2023-03-03T03:16:17;1.60;99.90
30097;DHT22;16915;51.466;3.610;2023-03-03T03:18:43;1.60;99.90
30097;DHT22;16915;51.466;3.610;2023-03-03T03:21:11;1.60;99.90
30097;DHT22;16915;51.466;3.610;2023-03-03T03:23:37;1.60;99.90
30097;DHT22;16915;51.466;3.610;2023-03-03T03:26:04;1.60;99.90
30097;DHT22;16915;51.466;3.610;2023-03-03T03:28:29;1.60;99.90
30097;DHT22;16915;51.466;3.610;2023-03-03T03:30:55;1.60;99.90
30097;DHT22;16915;51.466;3.610;2023-03-03T03:33:21;1.70;99.90
30097;DHT22;16915;51.466;3.610;2023-03-03T03:35:46;1.70;99.90
30097;DHT22;16915;51.466;3.610;2023-03-03T03:38:13;1.60;99.90
30097;DHT22;16915;51.466;3.610;2023-03-03T03:40:39;1.60;99.90
30097;DHT22;16915;51.466;3.610;2023-03-03T03:43:05;1.60;99.90
30097;DHT22;16915;51.466;3.610;2023-03-03T03:45:31;1.50;99.90
30097;DHT22;16915;51.466;3.610;2023-03-03T03:47:57;1.50;99.90
30097;DHT22;16915;51.466;3.610;2023-03-03T03:50:23;1.40;99.90
30097;DHT22;16915;51.466;3.610;2023-03-03T03:52:48;1.40;99.90
30097;DHT22;16915;51.466;3.610;2023-03-03T03:55:14;1.50;99.90
30097;DHT22;16915;51.466;3.610;2023-03-03T03:57:40;1.50;99.90
30097;DHT22;16915;51.466;3.610;2023-03-03T04:00:07;1.50;99.90
30097;DHT22;16915;51.466;3.610;2023-03-03T04:02:33;1.50;99.90
30097;DHT22;16915;51.466;3.610;2023-03-03T04:04:59;1.50;99.90
30097;DHT22;16915;51.466;3.610;2023-03-03T04:07:25;1.50;99.90
30097;DHT22;16915;51.466;3.610;2023-03-03T04:09:51;1.50;99.90
30097;DHT22;16915;51.466;3.610;2023-03-03T04:12:16;1.60;99.90
30097;DHT22;16915;51.466;3.610;2023-03-03T04:14:42;1.50;99.90
30097;DHT22;16915;51.466;3.610;2023-03-03T04:17:09;1.50;99.90
30097;DHT22;16915;51.466;3.610;2023-03-03T04:19:39;1.60;99.90
30097;DHT22;16915;51.466;3.610;2023-03-03T04:22:05;1.60;99.90
30097;DHT22;16915;51.466;3.610;2023-03-03T04:24:31;1.50;99.90
30097;DHT22;16915;51.466;3.610;2023-03-03T04:26:56;1.60;99.90
30097;DHT22;16915;51.466;3.610;2023-03-03T04:29:22;1.60;99.90
30097;DHT22;16915;51.466;3.610;2023-03-03T04:31:47;1.70;99.90
30097;DHT22;16915;51.466;3.610;2023-03-03T04:34:13;1.60;99.90
30097;DHT22;16915;51.466;3.610;2023-03-03T04:36:38;1.60;99.90
30097;DHT22;16915;51.466;3.610;2023-03-03T04:39:04;1.70;99.90
30097;DHT22;16915;51.466;3.610;2023-03-03T04:41:29;1.70;99.90
30097;DHT22;16915;51.466;3.610;2023-03-03T04:43:55;1.80;99.90
30097;DHT22;16915;51.466;3.610;2023-03-03T04:46:20;1.80;99.90
30097;DHT22;16915;51.466;3.610;2023-03-03T04:48:46;1.80;99.90
30097;DHT22;16915;51.466;3.610;2023-03-03T04:51:12;1.80;99.90
30097;DHT22;16915;51.466;3.610;2023-03-03T04:53:37;1.70;99.90
30097;DHT22;16915;51.466;3.610;2023-03-03T04:56:03;1.70;99.90
30097;DHT22;16915;51.466;3.610;2023-03-03T04:58:29;1.70;99.90
30097;DHT22;16915;51.466;3.610;2023-03-03T05:00:56;1.80;99.90
30097;DHT22;16915;51.466;3.610;2023-03-03T05:03:22;1.80;99.90
30097;DHT22;16915;51.466;3.610;2023-03-03T05:05:48;1.80;99.90
30097;DHT22;16915;51.466;3.610;2023-03-03T05:08:14;1.70;99.90
30097;DHT22;16915;51.466;3.610;2023-03-03T05:10:39;1.80;99.90
30097;DHT22;16915;51.466;3.610;2023-03-03T05:13:06;1.80;99.90
30097;DHT22;16915;51.466;3.610;2023-03-03T05:15:32;1.80;99.90
30097;DHT22;16915;51.466;3.610;2023-03-03T05:17:58;1.80;99.90
30097;DHT22;16915;51.466;3.610;2023-03-03T05:20:24;1.90;99.90
30097;DHT22;16915;51.466;3.610;2023-03-03T05:22:50;1.90;99.90
30097;DHT22;16915;51.466;3.610;2023-03-03T05:25:16;1.90;99.90
30097;DHT22;16915;51.466;3.610;2023-03-03T05:27:42;1.90;99.90
30097;DHT22;16915;51.466;3.610;2023-03-03T05:30:09;1.80;99.90
30097;DHT22;16915;51.466;3.610;2023-03-03T05:32:35;1.90;99.90
30097;DHT22;16915;51.466;3.610;2023-03-03T05:35:01;1.90;99.90
30097;DHT22;16915;51.466;3.610;2023-03-03T05:37:26;1.90;99.90
30097;DHT22;16915;51.466;3.610;2023-03-03T05:39:52;1.90;99.90
30097;DHT22;16915;51.466;3.610;2023-03-03T05:42:17;1.80;99.90
30097;DHT22;16915;51.466;3.610;2023-03-03T05:44:43;1.80;99.90
30097;DHT22;16915;51.466;3.610;2023-03-03T05:47:09;1.90;99.90
30097;DHT22;16915;51.466;3.610;2023-03-03T05:49:34;1.80;99.90
30097;DHT22;16915;51.466;3.610;2023-03-03T05:52:00;1.90;99.90
30097;DHT22;16915;51.466;3.610;2023-03-03T05:54:26;1.90;99.90
30097;DHT22;16915;51.466;3.610;2023-03-03T05:56:51;2.00;99.90
30097;DHT22;16915;51.466;3.610;2023-03-03T05:59:17;2.00;99.90
30097;DHT22;16915;51.466;3.610;2023-03-03T06:01:44;1.90;99.90
30097;DHT22;16915;51.466;3.610;2023-03-03T06:04:09;1.90;99.90
30097;DHT22;16915;51.466;3.610;2023-03-03T06:06:35;1.90;99.90
30097;DHT22;16915;51.466;3.610;2023-03-03T06:09:01;1.90;99.90
30097;DHT22;16915;51.466;3.610;2023-03-03T06:11:26;1.90;99.90
30097;DHT22;16915;51.466;3.610;2023-03-03T06:13:52;1.90;99.90
30097;DHT22;16915;51.466;3.610;2023-03-03T06:16:17;1.90;99.90
30097;DHT22;16915;51.466;3.610;2023-03-03T06:18:43;1.90;99.90
30097;DHT22;16915;51.466;3.610;2023-03-03T06:21:09;1.80;99.90
30097;DHT22;16915;51.466;3.610;2023-03-03T06:23:34;1.80;99.90
30097;DHT22;16915;51.466;3.610;2023-03-03T06:26:00;1.80;99.90
30097;DHT22;16915;51.466;3.610;2023-03-03T06:28:25;1.80;99.90
30097;DHT22;16915;51.466;3.610;2023-03-03T06:30:55;1.80;99.90
30097;DHT22;16915;51.466;3.610;2023-03-03T06:33:21;1.80;99.90
30097;DHT22;16915;51.466;3.610;2023-03-03T06:35:51;1.60;99.90
30097;DHT22;16915;51.466;3.610;2023-03-03T06:38:17;1.60;99.90
30097;DHT22;16915;51.466;3.610;2023-03-03T06:40:44;1.60;99.90
30097;DHT22;16915;51.466;3.610;2023-03-03T06:43:10;1.60;99.90
30097;DHT22;16915;51.466;3.610;2023-03-03T06:45:36;1.60;99.90
30097;DHT22;16915;51.466;3.610;2023-03-03T06:48:02;1.60;99.90
30097;DHT22;16915;51.466;3.610;2023-03-03T06:50:27;1.60;99.90
30097;DHT22;16915;51.466;3.610;2023-03-03T06:53:06;1.70;99.90
30097;DHT22;16915;51.466;3.610;2023-03-03T06:55:34;1.80;99.90
30097;DHT22;16915;51.466;3.610;2023-03-03T06:58:00;1.80;99.90
30097;DHT22;16915;51.466;3.610;2023-03-03T07:00:27;1.80;99.90
30097;DHT22;16915;51.466;3.610;2023-03-03T07:02:58;1.90;99.90
30097;DHT22;16915;51.466;3.610;2023-03-03T07:05:26;2.00;99.90
30097;DHT22;16915;51.466;3.610;2023-03-03T07:07:56;2.10;99.90
30097;DHT22;16915;51.466;3.610;2023-03-03T07:12:47;2.20;99.90
30097;DHT22;16915;51.466;3.610;2023-03-03T07:15:20;2.30;99.90
30097;DHT22;16915;51.466;3.610;2023-03-03T07:17:54;2.30;99.90
30097;DHT22;16915;51.466;3.610;2023-03-03T07:20:32;2.40;99.90
30097;DHT22;16915;51.466;3.610;2023-03-03T07:22:59;2.40;99.90
30097;DHT22;16915;51.466;3.610;2023-03-03T07:25:30;2.50;99.90
30097;DHT22;16915;51.466;3.610;2023-03-03T07:28:27;2.50;99.90
30097;DHT22;16915;51.466;3.610;2023-03-03T07:30:54;2.50;99.90
30097;DHT22;16915;51.466;3.610;2023-03-03T07:35:53;2.60;99.90
30097;DHT22;16915;51.466;3.610;2023-03-03T07:40:54;2.70;99.90
30097;DHT22;16915;51.466;3.610;2023-03-03T07:48:39;2.80;99.90
30097;DHT22;16915;51.466;3.610;2023-03-03T07:51:19;2.90;99.90
30097;DHT22;16915;51.466;3.610;2023-03-03T07:53:47;2.90;99.90
30097;DHT22;16915;51.466;3.610;2023-03-03T07:56:29;3.00;99.90
30097;DHT22;16915;51.466;3.610;2023-03-03T07:58:56;3.10;99.90
30097;DHT22;16915;51.466;3.610;2023-03-03T08:01:39;3.10;99.90
30097;DHT22;16915;51.466;3.610;2023-03-03T08:06:48;3.20;99.90
30097;DHT22;16915;51.466;3.610;2023-03-03T08:14:24;3.30;99.90
30097;DHT22;16915;51.466;3.610;2023-03-03T08:16:50;3.40;99.90
30097;DHT22;16915;51.466;3.610;2023-03-03T08:19:16;3.50;99.90
30097;DHT22;16915;51.466;3.610;2023-03-03T08:21:42;3.50;99.90
30097;DHT22;16915;51.466;3.610;2023-03-03T08:24:08;3.50;99.90
30097;DHT22;16915;51.466;3.610;2023-03-03T08:26:34;3.50;99.90
30097;DHT22;16915;51.466;3.610;2023-03-03T08:28:59;3.60;99.90
30097;DHT22;16915;51.466;3.610;2023-03-03T08:31:26;3.70;99.90
30097;DHT22;16915;51.466;3.610;2023-03-03T08:33:51;3.80;99.90
30097;DHT22;16915;51.466;3.610;2023-03-03T08:36:17;3.90;99.90
30097;DHT22;16915;51.466;3.610;2023-03-03T08:38:43;4.00;99.90
30097;DHT22;16915;51.466;3.610;2023-03-03T08:41:09;4.10;99.90
30097;DHT22;16915;51.466;3.610;2023-03-03T08:43:34;4.20;99.90
30097;DHT22;16915;51.466;3.610;2023-03-03T08:46:01;4.30;99.90
30097;DHT22;16915;51.466;3.610;2023-03-03T08:48:28;4.30;99.90
30097;DHT22;16915;51.466;3.610;2023-03-03T08:50:54;4.40;99.90
30097;DHT22;16915;51.466;3.610;2023-03-03T08:53:20;4.50;99.90
30097;DHT22;16915;51.466;3.610;2023-03-03T08:55:46;4.60;99.90
30097;DHT22;16915;51.466;3.610;2023-03-03T08:58:13;4.70;99.90
30097;DHT22;16915;51.466;3.610;2023-03-03T09:00:39;4.90;99.90
30097;DHT22;16915;51.466;3.610;2023-03-03T09:03:12;4.90;99.90
30097;DHT22;16915;51.466;3.610;2023-03-03T09:05:39;5.00;99.90
30097;DHT22;16915;51.466;3.610;2023-03-03T09:08:06;5.10;99.90
30097;DHT22;16915;51.466;3.610;2023-03-03T09:10:33;5.10;99.90
30097;DHT22;16915;51.466;3.610;2023-03-03T09:13:15;5.00;99.90
30097;DHT22;16915;51.466;3.610;2023-03-03T09:15:42;4.90;99.90
30097;DHT22;16915;51.466;3.610;2023-03-03T09:20:53;4.80;99.90
30097;DHT22;16915;51.466;3.610;2023-03-03T09:25:56;4.80;99.90
30097;DHT22;16915;51.466;3.610;2023-03-03T09:28:30;4.70;99.90
30097;DHT22;16915;51.466;3.610;2023-03-03T09:30:59;4.70;99.90
30097;DHT22;16915;51.466;3.610;2023-03-03T09:33:41;4.70;99.90
30097;DHT22;16915;51.466;3.610;2023-03-03T09:36:29;4.70;99.90
30097;DHT22;16915;51.466;3.610;2023-03-03T09:38:59;4.90;99.90
30097;DHT22;16915;51.466;3.610;2023-03-03T09:41:32;5.10;99.90
30097;DHT22;16915;51.466;3.610;2023-03-03T09:47:23;5.30;99.90
30097;DHT22;16915;51.466;3.610;2023-03-03T09:53:03;5.70;99.90
30097;DHT22;16915;51.466;3.610;2023-03-03T09:59:04;6.00;99.90
30097;DHT22;16915;51.466;3.610;2023-03-03T10:12:25;6.40;99.90
30097;DHT22;16915;51.466;3.610;2023-03-03T10:17:48;6.40;99.90
30097;DHT22;16915;51.466;3.610;2023-03-03T10:22:55;6.50;99.90
30097;DHT22;16915;51.466;3.610;2023-03-03T10:25:35;6.60;99.90
30097;DHT22;16915;51.466;3.610;2023-03-03T10:31:03;7.30;99.90
30097;DHT22;16915;51.466;3.610;2023-03-03T10:39:48;7.80;99.90
30097;DHT22;16915;51.466;3.610;2023-03-03T10:47:45;8.30;99.90
30097;DHT22;16915;51.466;3.610;2023-03-03T10:50:29;8.80;99.90
30097;DHT22;16915;51.466;3.610;2023-03-03T11:08:58;10.70;99.90
30097;DHT22;16915;51.466;3.610;2023-03-03T11:12:04;10.50;99.90
30097;DHT22;16915;51.466;3.610;2023-03-03T11:20:45;9.90;99.90
30097;DHT22;16915;51.466;3.610;2023-03-03T11:26:17;9.30;99.90
30097;DHT22;16915;51.466;3.610;2023-03-03T11:31:57;9.10;99.90
30097;DHT22;16915;51.466;3.610;2023-03-03T11:37:12;9.60;99.90
30097;DHT22;16915;51.466;3.610;2023-03-03T11:39:40;10.50;99.90
30097;DHT22;16915;51.466;3.610;2023-03-03T11:44:53;11.70;99.90
30097;DHT22;16915;51.466;3.610;2023-03-03T11:50:21;13.20;99.90
30097;DHT22;16915;51.466;3.610;2023-03-03T11:52:58;13.70;99.90
30097;DHT22;16915;51.466;3.610;2023-03-03T11:55:41;14.30;99.90
30097;DHT22;16915;51.466;3.610;2023-03-03T12:03:25;15.50;99.90
30097;DHT22;16915;51.466;3.610;2023-03-03T12:11:56;15.40;99.90
30097;DHT22;16915;51.466;3.610;2023-03-03T12:15:03;15.20;99.90
30097;DHT22;16915;51.466;3.610;2023-03-03T12:20:33;14.50;99.90
30097;DHT22;16915;51.466;3.610;2023-03-03T12:23:52;13.40;99.90
30097;DHT22;16915;51.466;3.610;2023-03-03T12:29:42;13.00;99.90
30097;DHT22;16915;51.466;3.610;2023-03-03T12:32:28;13.00;99.90
30097;DHT22;16915;51.466;3.610;2023-03-03T12:35:09;13.60;99.90
30097;DHT22;16915;51.466;3.610;2023-03-03T12:37:56;13.30;99.90
30097;DHT22;16915;51.466;3.610;2023-03-03T12:40:25;13.30;99.90
30097;DHT22;16915;51.466;3.610;2023-03-03T12:46:17;13.60;99.90
30097;DHT22;16915;51.466;3.610;2023-03-03T12:48:45;14.10;99.90
30097;DHT22;16915;51.466;3.610;2023-03-03T12:56:54;14.90;99.90
30097;DHT22;16915;51.466;3.610;2023-03-03T13:02:42;15.80;99.90
30097;DHT22;16915;51.466;3.610;2023-03-03T13:10:26;13.50;99.90
30097;DHT22;16915;51.466;3.610;2023-03-03T13:13:43;12.60;99.90
30097;DHT22;16915;51.466;3.610;2023-03-03T13:16:13;13.30;99.90
30097;DHT22;16915;51.466;3.610;2023-03-03T13:18:51;14.20;99.90
30097;DHT22;16915;51.466;3.610;2023-03-03T13:21:29;14.00;99.90
30097;DHT22;16915;51.466;3.610;2023-03-03T13:26:35;12.90;99.90
30097;DHT22;16915;51.466;3.610;2023-03-03T13:29:12;13.90;99.90
30097;DHT22;16915;51.466;3.610;2023-03-03T13:34:49;13.20;99.90
30097;DHT22;16915;51.466;3.610;2023-03-03T13:40:02;11.90;99.90
30097;DHT22;16915;51.466;3.610;2023-03-03T13:42:45;11.50;99.90
30097;DHT22;16915;51.466;3.610;2023-03-03T13:50:50;10.50;99.90
30097;DHT22;16915;51.466;3.610;2023-03-03T13:53:30;10.40;99.90
30097;DHT22;16915;51.466;3.610;2023-03-03T13:56:00;10.30;99.90
30097;DHT22;16915;51.466;3.610;2023-03-03T13:59:00;10.10;99.90
30097;DHT22;16915;51.466;3.610;2023-03-03T14:02:06;10.10;99.90
30097;DHT22;16915;51.466;3.610;2023-03-03T14:04:44;9.90;99.90
30097;DHT22;16915;51.466;3.610;2023-03-03T14:07:18;9.60;99.90
30097;DHT22;16915;51.466;3.610;2023-03-03T14:10:08;9.50;99.90
30097;DHT22;16915;51.466;3.610;2023-03-03T14:13:03;9.40;99.90
30097;DHT22;16915;51.466;3.610;2023-03-03T14:15:30;9.40;99.90
30097;DHT22;16915;51.466;3.610;2023-03-03T14:18:28;9.50;99.90
30097;DHT22;16915;51.466;3.610;2023-03-03T14:21:02;9.60;99.90
30097;DHT22;16915;51.466;3.610;2023-03-03T14:24:08;9.60;99.90
30097;DHT22;16915;51.466;3.610;2023-03-03T14:26:51;9.40;99.90
30097;DHT22;16915;51.466;3.610;2023-03-03T14:32:01;9.10;99.90
30097;DHT22;16915;51.466;3.610;2023-03-03T14:34:43;9.00;99.90
30097;DHT22;16915;51.466;3.610;2023-03-03T14:42:36;9.10;99.90
30097;DHT22;16915;51.466;3.610;2023-03-03T14:47:48;9.20;99.90
30097;DHT22;16915;51.466;3.610;2023-03-03T14:50:36;9.20;99.90
30097;DHT22;16915;51.466;3.610;2023-03-03T14:53:22;9.30;99.90
30097;DHT22;16915;51.466;3.610;2023-03-03T14:55:55;9.20;99.90
30097;DHT22;16915;51.466;3.610;2023-03-03T14:58:40;9.10;99.90
30097;DHT22;16915;51.466;3.610;2023-03-03T15:01:12;9.00;99.90
30097;DHT22;16915;51.466;3.610;2023-03-03T15:03:45;8.90;99.90
30097;DHT22;16915;51.466;3.610;2023-03-03T15:09:22;8.90;99.90
30097;DHT22;16915;51.466;3.610;2023-03-03T15:11:56;8.80;99.90
30097;DHT22;16915;51.466;3.610;2023-03-03T15:14:35;8.80;99.90
30097;DHT22;16915;51.466;3.610;2023-03-03T15:25:09;8.60;99.90
30097;DHT22;16915;51.466;3.610;2023-03-03T15:27:43;8.60;99.90
30097;DHT22;16915;51.466;3.610;2023-03-03T15:30:32;8.40;99.90
30097;DHT22;16915;51.466;3.610;2023-03-03T15:33:15;8.20;99.90
30097;DHT22;16915;51.466;3.610;2023-03-03T15:35:56;8.00;99.90
30097;DHT22;16915;51.466;3.610;2023-03-03T15:38:45;7.90;99.90
30097;DHT22;16915;51.466;3.610;2023-03-03T15:41:18;7.80;99.90
30097;DHT22;16915;51.466;3.610;2023-03-03T15:52:37;8.20;99.90
30097;DHT22;16915;51.466;3.610;2023-03-03T16:04:08;8.00;99.90
30097;DHT22;16915;51.466;3.610;2023-03-03T16:09:55;7.90;99.90
30097;DHT22;16915;51.466;3.610;2023-03-03T16:18:02;7.90;99.90
30097;DHT22;16915;51.466;3.610;2023-03-03T16:20:41;7.90;99.90
30097;DHT22;16915;51.466;3.610;2023-03-03T16:26:13;7.80;99.90
30097;DHT22;16915;51.466;3.610;2023-03-03T16:34:19;7.60;99.90
30097;DHT22;16915;51.466;3.610;2023-03-03T16:36:53;7.50;99.90
30097;DHT22;16915;51.466;3.610;2023-03-03T16:42:31;7.40;99.90
30097;DHT22;16915;51.466;3.610;2023-03-03T16:56:10;7.30;99.90
30097;DHT22;16915;51.466;3.610;2023-03-03T16:58:58;7.20;99.90
30097;DHT22;16915;51.466;3.610;2023-03-03T17:01:38;7.20;99.90
30097;DHT22;16915;51.466;3.610;2023-03-03T17:20:46;6.80;99.90
30097;DHT22;16915;51.466;3.610;2023-03-03T17:23:22;6.80;99.90
30097;DHT22;16915;51.466;3.610;2023-03-03T17:28:51;6.70;99.90
30097;DHT22;16915;51.466;3.610;2023-03-03T17:31:51;6.70;99.90
30097;DHT22;16915;51.466;3.610;2023-03-03T17:34:41;6.60;99.90
30097;DHT22;16915;51.466;3.610;2023-03-03T17:37:39;6.70;99.90
30097;DHT22;16915;51.466;3.610;2023-03-03T17:43:10;6.60;99.90
30097;DHT22;16915;51.466;3.610;2023-03-03T17:45:41;6.60;99.90
30097;DHT22;16915;51.466;3.610;2023-03-03T17:53:30;6.50;99.90
30097;DHT22;16915;51.466;3.610;2023-03-03T17:56:12;6.50;99.90
30097;DHT22;16915;51.466;3.610;2023-03-03T18:01:21;6.50;99.90
30097;DHT22;16915;51.466;3.610;2023-03-03T18:09:26;6.40;99.90
30097;DHT22;16915;51.466;3.610;2023-03-03T18:20:33;6.40;99.90
30097;DHT22;16915;51.466;3.610;2023-03-03T18:22:55;6.40;99.90
30097;DHT22;16915;51.466;3.610;2023-03-03T18:25:24;6.40;99.90
30097;DHT22;16915;51.466;3.610;2023-03-03T18:30:29;6.40;99.90
30097;DHT22;16915;51.466;3.610;2023-03-03T18:33:04;6.40;99.90
30097;DHT22;16915;51.466;3.610;2023-03-03T18:35:43;6.40;99.90
30097;DHT22;16915;51.466;3.610;2023-03-03T18:48:48;6.30;99.90
30097;DHT22;16915;51.466;3.610;2023-03-03T19:02:12;6.20;99.90
30097;DHT22;16915;51.466;3.610;2023-03-03T19:07:48;6.30;99.90
30097;DHT22;16915;51.466;3.610;2023-03-03T19:10:46;6.30;99.90
30097;DHT22;16915;51.466;3.610;2023-03-03T19:16:03;6.30;99.90
30097;DHT22;16915;51.466;3.610;2023-03-03T19:21:25;6.30;99.90
30097;DHT22;16915;51.466;3.610;2023-03-03T19:23:57;6.40;99.90
30097;DHT22;16915;51.466;3.610;2023-03-03T19:34:59;6.40;99.90
30097;DHT22;16915;51.466;3.610;2023-03-03T19:37:44;6.40;99.90
30097;DHT22;16915;51.466;3.610;2023-03-03T19:43:08;6.40;99.90
30097;DHT22;16915;51.466;3.610;2023-03-03T19:46:00;6.40;99.90
30097;DHT22;16915;51.466;3.610;2023-03-03T19:51:36;6.40;99.90
30097;DHT22;16915;51.466;3.610;2023-03-03T19:54:16;6.40;99.90
30097;DHT22;16915;51.466;3.610;2023-03-03T19:56:49;6.40;99.90
30097;DHT22;16915;51.466;3.610;2023-03-03T20:10:27;6.20;99.90
30097;DHT22;16915;51.466;3.610;2023-03-03T20:21:34;6.20;99.90
30097;DHT22;16915;51.466;3.610;2023-03-03T20:24:05;6.30;99.90
30097;DHT22;16915;51.466;3.610;2023-03-03T20:29:55;6.20;99.90
30097;DHT22;16915;51.466;3.610;2023-03-03T20:32:42;6.30;99.90
30097;DHT22;16915;51.466;3.610;2023-03-03T20:35:48;6.30;99.90
30097;DHT22;16915;51.466;3.610;2023-03-03T20:43:48;6.30;99.90
30097;DHT22;16915;51.466;3.610;2023-03-03T20:46:31;6.20;99.90
30097;DHT22;16915;51.466;3.610;2023-03-03T20:51:57;6.20;99.90
30097;DHT22;16915;51.466;3.610;2023-03-03T20:59:53;6.20;99.90
30097;DHT22;16915;51.466;3.610;2023-03-03T21:07:37;6.20;99.90
30097;DHT22;16915;51.466;3.610;2023-03-03T21:10:16;6.20;99.90
30097;DHT22;16915;51.466;3.610;2023-03-03T21:12:48;6.20;99.90
30097;DHT22;16915;51.466;3.610;2023-03-03T21:15:24;6.20;99.90
30097;DHT22;16915;51.466;3.610;2023-03-03T21:17:50;6.20;99.90
30097;DHT22;16915;51.466;3.610;2023-03-03T21:22:54;6.20;99.90
30097;DHT22;16915;51.466;3.610;2023-03-03T21:28:13;6.30;99.90
30097;DHT22;16915;51.466;3.610;2023-03-03T21:33:49;6.20;99.90
30097;DHT22;16915;51.466;3.610;2023-03-03T21:36:17;6.20;99.90
30097;DHT22;16915;51.466;3.610;2023-03-03T21:38:43;6.20;99.90
30097;DHT22;16915;51.466;3.610;2023-03-03T21:41:10;6.20;99.90
30097;DHT22;16915;51.466;3.610;2023-03-03T21:43:41;6.20;99.90
30097;DHT22;16915;51.466;3.610;2023-03-03T21:46:07;6.20;99.90
30097;DHT22;16915;51.466;3.610;2023-03-03T21:48:33;6.20;99.90
30097;DHT22;16915;51.466;3.610;2023-03-03T21:50:58;6.20;99.90
30097;DHT22;16915;51.466;3.610;2023-03-03T21:53:24;6.20;99.90
30097;DHT22;16915;51.466;3.610;2023-03-03T21:55:51;6.20;99.90
30097;DHT22;16915;51.466;3.610;2023-03-03T21:58:18;6.20;99.90
30097;DHT22;16915;51.466;3.610;2023-03-03T22:00:43;6.20;99.90
30097;DHT22;16915;51.466;3.610;2023-03-03T22:03:10;6.20;99.90
30097;DHT22;16915;51.466;3.610;2023-03-03T22:05:36;6.20;99.90
30097;DHT22;16915;51.466;3.610;2023-03-03T22:08:01;6.20;99.90
30097;DHT22;16915;51.466;3.610;2023-03-03T22:10:27;6.20;99.90
30097;DHT22;16915;51.466;3.610;2023-03-03T22:12:53;6.20;99.90
30097;DHT22;16915;51.466;3.610;2023-03-03T22:15:18;6.20;99.90
30097;DHT22;16915;51.466;3.610;2023-03-03T22:17:44;6.20;99.90
30097;DHT22;16915;51.466;3.610;2023-03-03T22:20:10;6.20;99.90
30097;DHT22;16915;51.466;3.610;2023-03-03T22:22:36;6.20;99.90
30097;DHT22;16915;51.466;3.610;2023-03-03T22:25:01;6.20;99.90
30097;DHT22;16915;51.466;3.610;2023-03-03T22:27:27;6.20;99.90
30097;DHT22;16915;51.466;3.610;2023-03-03T22:29:53;6.20;99.90